« Back
NWS Peachtree City, Ga » Text Product » ATL Terminal Aerodrome Forecast


Printer-friendly Version
Current Version              Previous Versions:   1  2  3  4  5  6  7  8  9  

Terminal Aerodrome Forecast

916
FTUS42 KFFC 260800 AAA
TAFATL
TAF AMD
KATL 260841Z 2609/2712 31007KT P6SM SKC
     FM261300 32008KT P6SM FEW250
     FM270000 31003KT P6SM SKC=

USA.gov is the U.S. government's official web portal to all federal, state and local government web resources and services.